createdAt,value
2022-11-21T00:01:35.461Z,10.80
2022-11-21T00:04:02.236Z,9.50
2022-11-21T00:06:29.128Z,9.50
2022-11-21T00:08:56.575Z,9.50
2022-11-21T00:11:23.370Z,9.50
2022-11-21T00:13:50.210Z,9.50
2022-11-21T00:16:17.056Z,9.50
2022-11-21T00:18:44.598Z,9.40
2022-11-21T00:21:18.397Z,9.40
2022-11-21T00:23:48.240Z,9.40
2022-11-21T00:26:17.275Z,9.40
2022-11-21T00:28:45.125Z,9.40
2022-11-21T00:31:24.066Z,9.30
2022-11-21T00:33:50.908Z,9.30
2022-11-21T00:36:17.846Z,9.50
2022-11-21T00:38:44.664Z,9.00
2022-11-21T00:41:11.444Z,9.30
2022-11-21T00:43:46.198Z,9.20
2022-11-21T00:46:13.006Z,9.50
2022-11-21T00:48:39.933Z,9.30
2022-11-21T00:51:06.712Z,10.30
2022-11-21T00:53:33.627Z,9.20
2022-11-21T00:56:00.411Z,9.20
2022-11-21T00:58:27.999Z,9.20
2022-11-21T01:01:15.632Z,9.10
2022-11-21T01:03:42.924Z,9.10
2022-11-21T01:06:14.912Z,9.10
2022-11-21T01:08:44.904Z,9.10
2022-11-21T01:11:18.430Z,9.00
2022-11-21T01:13:46.889Z,9.00
2022-11-21T01:16:17.519Z,9.00
2022-11-21T01:18:45.240Z,8.90
2022-11-21T01:21:27.152Z,8.70
2022-11-21T01:23:55.236Z,9.00
2022-11-21T01:26:25.912Z,9.10
2022-11-21T01:28:53.108Z,9.50
2022-11-21T01:31:26.575Z,9.00
2022-11-21T01:33:59.135Z,9.00
2022-11-21T01:36:34.410Z,9.00
2022-11-21T01:39:05.062Z,9.00
2022-11-21T01:41:36.766Z,8.90
2022-11-21T01:44:20.616Z,9.60
2022-11-21T01:46:50.055Z,8.90
2022-11-21T01:49:29.293Z,8.60
2022-11-21T01:52:03.532Z,8.80
2022-11-21T01:54:37.863Z,8.80
2022-11-21T01:57:19.088Z,9.40
2022-11-21T01:59:54.953Z,8.70
2022-11-21T02:02:27.836Z,8.60
2022-11-21T02:04:56.625Z,9.30
2022-11-21T02:07:26.441Z,9.80
2022-11-21T02:10:00.501Z,8.60
2022-11-21T02:12:35.498Z,9.20
2022-11-21T02:15:02.344Z,9.00
2022-11-21T02:17:30.977Z,9.30
2022-11-21T02:20:02.781Z,8.60
2022-11-21T02:22:49.178Z,8.60
2022-11-21T02:25:27.291Z,8.60
2022-11-21T02:28:17.260Z,7.80
2022-11-21T02:30:44.258Z,8.50
2022-11-21T02:33:12.356Z,8.50
2022-11-21T02:35:40.450Z,8.50
2022-11-21T02:38:19.792Z,8.50
2022-11-21T02:41:07.158Z,8.50
2022-11-21T02:43:44.572Z,8.50
2022-11-21T02:46:11.456Z,8.50
2022-11-21T02:48:39.231Z,8.50
2022-11-21T02:51:05.974Z,8.70
2022-11-21T02:53:32.948Z,9.70
2022-11-21T02:55:59.711Z,8.50
2022-11-21T02:58:27.054Z,9.40
2022-11-21T03:00:55.206Z,8.40
2022-11-21T03:03:22.537Z,8.30
2022-11-21T03:05:49.401Z,8.50
2022-11-21T03:08:16.242Z,9.50
2022-11-21T03:10:46.025Z,9.50
2022-11-21T03:13:12.826Z,8.30
2022-11-21T03:15:39.639Z,10.00
2022-11-21T03:18:06.687Z,9.20
2022-11-21T03:20:34.871Z,8.40
2022-11-21T03:23:02.655Z,8.70
2022-11-21T03:25:31.296Z,9.30
2022-11-21T03:27:58.111Z,9.10
2022-11-21T03:30:27.660Z,9.00
2022-11-21T03:32:58.180Z,9.90
2022-11-21T03:35:26.305Z,8.50
2022-11-21T03:37:53.597Z,8.40
2022-11-21T03:40:20.866Z,8.90
2022-11-21T03:42:47.641Z,8.40
2022-11-21T03:45:14.396Z,8.50
2022-11-21T03:47:41.584Z,8.70
2022-11-21T03:50:08.758Z,8.50
2022-11-21T03:52:35.480Z,8.70
2022-11-21T03:55:02.251Z,8.80
2022-11-21T03:57:29.139Z,9.70
2022-11-21T03:59:55.933Z,8.80
2022-11-21T04:02:22.723Z,8.80
2022-11-21T04:04:49.499Z,9.80
2022-11-21T04:07:16.555Z,8.90
2022-11-21T04:09:43.478Z,8.20
2022-11-21T04:12:10.358Z,9.10
2022-11-21T04:14:37.197Z,8.90
2022-11-21T04:17:04.105Z,9.00
2022-11-21T04:19:30.929Z,9.00
2022-11-21T04:21:57.703Z,9.00
2022-11-21T04:24:24.439Z,9.80
2022-11-21T04:26:51.225Z,9.00
2022-11-21T04:29:17.989Z,10.00
2022-11-21T04:31:44.706Z,9.10
2022-11-21T04:34:11.586Z,9.10
2022-11-21T04:36:38.526Z,9.10
2022-11-21T04:39:05.342Z,10.20
2022-11-21T04:41:32.191Z,10.20
2022-11-21T04:43:58.967Z,8.00
2022-11-21T04:46:25.703Z,9.00
2022-11-21T04:48:52.462Z,9.10
2022-11-21T04:51:19.322Z,9.10
2022-11-21T04:53:46.097Z,8.70
2022-11-21T04:56:16.286Z,9.90
2022-11-21T04:58:44.635Z,10.00
2022-11-21T05:01:12.055Z,8.80
2022-11-21T05:03:39.022Z,9.00
2022-11-21T05:06:05.774Z,9.70
2022-11-21T05:08:32.594Z,8.30
2022-11-21T05:11:18.021Z,10.00
2022-11-21T05:13:44.868Z,8.00
2022-11-21T05:16:11.666Z,8.90
2022-11-21T05:18:38.531Z,8.70
2022-11-21T05:21:05.290Z,8.90
2022-11-21T05:23:32.278Z,8.70
2022-11-21T05:25:59.100Z,8.90
2022-11-21T05:28:26.019Z,8.90
2022-11-21T05:30:52.759Z,9.10
2022-11-21T05:33:20.311Z,10.20
2022-11-21T05:35:47.310Z,9.00
2022-11-21T05:38:14.118Z,9.00
2022-11-21T05:40:40.930Z,8.70
2022-11-21T05:43:26.260Z,10.00
2022-11-21T05:45:53.034Z,10.30
2022-11-21T05:48:19.999Z,9.00
2022-11-21T05:50:49.818Z,9.90
2022-11-21T05:53:17.561Z,8.90
2022-11-21T05:55:45.059Z,9.00
2022-11-21T05:58:11.930Z,9.10
2022-11-21T06:00:39.109Z,9.00
2022-11-21T06:03:25.219Z,9.00
2022-11-21T06:05:55.019Z,9.00
2022-11-21T06:08:21.825Z,9.00
2022-11-21T06:10:48.713Z,9.00
2022-11-21T06:13:24.257Z,9.00
2022-11-21T06:16:00.954Z,9.00
2022-11-21T06:18:31.327Z,9.00
2022-11-21T06:21:04.584Z,9.00
2022-11-21T06:23:32.248Z,8.10
2022-11-21T06:26:00.936Z,8.90
2022-11-21T06:28:31.756Z,8.90
2022-11-21T06:31:07.009Z,8.70
2022-11-21T06:33:35.232Z,8.70
2022-11-21T06:36:12.812Z,10.00
2022-11-21T06:38:40.295Z,8.80
2022-11-21T06:41:11.627Z,8.80
2022-11-21T06:43:39.177Z,8.80
2022-11-21T06:46:06.269Z,8.80
2022-11-21T06:48:35.202Z,8.70
2022-11-21T06:51:13.310Z,9.40
2022-11-21T06:53:40.202Z,8.80
2022-11-21T06:56:07.054Z,8.60
2022-11-21T06:58:34.129Z,9.10
2022-11-21T07:01:08.646Z,9.20
2022-11-21T07:03:36.788Z,8.80
2022-11-21T07:06:04.578Z,8.70
2022-11-21T07:08:33.659Z,8.80
2022-11-21T07:11:24.655Z,9.70
2022-11-21T07:13:52.738Z,8.80
2022-11-21T07:16:19.746Z,9.40
2022-11-21T07:18:46.680Z,10.20
2022-11-21T07:21:13.869Z,8.70
2022-11-21T07:23:40.773Z,9.70
2022-11-21T07:26:10.453Z,10.40
2022-11-21T07:28:37.485Z,9.90
2022-11-21T07:31:10.109Z,10.30
2022-11-21T07:34:00.907Z,8.60
2022-11-21T07:36:28.498Z,10.50
2022-11-21T07:38:57.461Z,10.40
2022-11-21T07:41:24.285Z,10.00
2022-11-21T07:43:51.059Z,8.80
2022-11-21T07:46:17.860Z,10.50
2022-11-21T07:49:07.650Z,10.10
2022-11-21T07:51:34.508Z,9.30
2022-11-21T07:54:32.692Z,9.00
2022-11-21T07:57:04.556Z,10.00
2022-11-21T07:59:57.710Z,9.60
2022-11-21T08:02:42.927Z,10.80
2022-11-21T08:08:54.973Z,9.90
2022-11-21T08:12:15.953Z,10.20
2022-11-21T08:16:14.207Z,11.10
2022-11-21T08:17:48.634Z,9.40
2022-11-21T08:20:24.198Z,10.80
2022-11-21T08:22:51.117Z,9.60
2022-11-21T08:25:32.677Z,10.50
2022-11-21T08:28:00.605Z,9.80
2022-11-21T08:30:41.878Z,9.70
2022-11-21T08:33:18.275Z,9.30
2022-11-21T08:35:45.412Z,10.10
2022-11-21T08:38:12.316Z,10.20
2022-11-21T08:40:40.571Z,11.70
2022-11-21T08:43:10.041Z,10.70
2022-11-21T08:45:39.504Z,11.80
2022-11-21T08:48:12.925Z,11.70
2022-11-21T08:50:40.244Z,13.40
2022-11-21T08:53:07.180Z,13.60
2022-11-21T08:55:34.147Z,13.70
2022-11-21T08:58:01.099Z,14.50
2022-11-21T09:00:28.029Z,14.00
2022-11-21T09:03:05.790Z,14.30
2022-11-21T09:05:35.359Z,14.80
2022-11-21T09:08:02.231Z,15.10
2022-11-21T09:10:29.513Z,15.40
2022-11-21T09:13:00.918Z,15.50
2022-11-21T09:15:46.568Z,15.60
2022-11-21T09:18:13.538Z,16.80
2022-11-21T09:20:47.581Z,15.70
2022-11-21T09:23:16.599Z,17.10
2022-11-21T09:25:44.713Z,15.90
2022-11-21T09:28:13.941Z,16.80
2022-11-21T09:30:42.871Z,16.50
2022-11-21T09:33:17.056Z,17.50
2022-11-21T09:35:44.439Z,17.90
2022-11-21T09:38:12.580Z,18.30
2022-11-21T09:40:46.200Z,18.90
2022-11-21T09:43:39.669Z,19.30
2022-11-21T09:46:14.018Z,19.80
2022-11-21T09:49:06.122Z,20.20
2022-11-21T09:51:37.571Z,20.50
2022-11-21T09:54:19.855Z,20.80
2022-11-21T09:56:48.678Z,20.90
2022-11-21T09:59:38.982Z,21.10
2022-11-21T10:02:19.863Z,21.30
2022-11-21T10:04:48.985Z,21.60
2022-11-21T10:07:21.562Z,22.20
2022-11-21T10:10:36.175Z,22.00
2022-11-21T10:13:32.367Z,22.20
2022-11-21T10:16:18.227Z,22.40
2022-11-21T10:19:11.769Z,22.90
2022-11-21T10:22:17.593Z,22.80
2022-11-21T10:25:01.857Z,23.00
2022-11-21T10:28:03.425Z,23.50
2022-11-21T10:30:30.922Z,23.40
2022-11-21T10:33:04.788Z,23.60
2022-11-21T10:35:57.682Z,23.80
2022-11-21T10:38:29.260Z,24.00
2022-11-21T10:41:07.513Z,24.20
2022-11-21T10:44:06.541Z,24.40
2022-11-21T10:46:33.880Z,24.50
2022-11-21T10:49:05.104Z,24.60
2022-11-21T10:51:58.520Z,24.60
2022-11-21T10:54:34.469Z,24.60
2022-11-21T10:57:20.109Z,24.90
2022-11-21T11:00:12.579Z,24.30
2022-11-21T11:03:04.871Z,24.50
2022-11-21T11:05:37.636Z,24.30
2022-11-21T11:08:15.373Z,24.30
2022-11-21T11:11:01.888Z,24.30
2022-11-21T11:13:50.622Z,24.20
2022-11-21T11:16:21.535Z,24.10
2022-11-21T11:19:00.227Z,24.10
2022-11-21T11:21:46.316Z,23.70
2022-11-21T11:24:13.133Z,23.40
2022-11-21T11:26:49.447Z,22.00
2022-11-21T11:29:30.411Z,22.60
2022-11-21T11:32:01.884Z,22.20
2022-11-21T11:35:27.332Z,21.80
2022-11-21T11:38:09.649Z,21.50
2022-11-21T11:40:50.613Z,21.00
2022-11-21T11:44:37.530Z,20.70
2022-11-21T11:47:37.510Z,20.40
2022-11-21T11:50:19.310Z,20.10
2022-11-21T11:52:57.141Z,19.90
2022-11-21T11:55:49.015Z,19.70
2022-11-21T11:58:41.672Z,20.20
2022-11-21T12:01:37.231Z,20.10
2022-11-21T12:04:18.946Z,19.30
2022-11-21T12:10:17.859Z,19.00
2022-11-21T12:13:03.534Z,18.60
2022-11-21T12:15:57.300Z,18.50
2022-11-21T12:19:02.509Z,18.30
2022-11-21T12:21:34.158Z,18.00
2022-11-21T12:24:07.971Z,18.60
2022-11-21T12:27:20.637Z,17.40
2022-11-21T12:30:24.343Z,17.20
2022-11-21T12:33:24.042Z,16.90
2022-11-21T12:36:47.762Z,16.60
2022-11-21T12:39:43.963Z,16.30
2022-11-21T12:42:48.496Z,16.10
2022-11-21T12:45:34.156Z,15.20
2022-11-21T12:48:44.176Z,15.80
2022-11-21T12:52:02.386Z,15.60
2022-11-21T12:54:57.154Z,15.40
2022-11-21T13:08:00.207Z,14.70
2022-11-21T13:10:29.097Z,15.00
2022-11-21T13:13:10.588Z,15.10
2022-11-21T13:16:37.120Z,14.40
2022-11-21T13:19:38.019Z,14.30
2022-11-21T13:22:06.923Z,14.10
2022-11-21T13:24:56.969Z,14.50
2022-11-21T13:27:39.388Z,14.60
2022-11-21T13:30:13.986Z,13.70
2022-11-21T13:32:56.695Z,13.80
2022-11-21T13:35:24.622Z,13.60
2022-11-21T13:38:08.866Z,14.10
2022-11-21T13:40:38.932Z,13.50
2022-11-21T13:46:02.346Z,13.30
2022-11-21T13:48:34.821Z,14.10
2022-11-21T13:51:44.156Z,13.20
2022-11-21T13:55:07.637Z,13.10
2022-11-21T13:58:04.056Z,13.00
2022-11-21T14:01:04.889Z,13.00
2022-11-21T14:04:01.228Z,12.90
2022-11-21T14:06:33.479Z,12.90
2022-11-21T14:09:16.709Z,12.80
2022-11-21T14:12:05.714Z,12.80
2022-11-21T14:15:08.758Z,12.70
2022-11-21T14:18:03.609Z,12.60
2022-11-21T14:20:54.215Z,12.30
2022-11-21T14:23:24.584Z,12.70
2022-11-21T14:29:48.980Z,12.60
2022-11-21T14:32:16.330Z,12.60
2022-11-21T14:34:43.685Z,12.50
2022-11-21T14:37:14.146Z,12.50
2022-11-21T14:39:45.084Z,13.10
2022-11-21T14:42:18.461Z,13.40
2022-11-21T14:44:46.844Z,12.50
2022-11-21T14:47:26.588Z,12.40
2022-11-21T14:50:05.306Z,12.50
2022-11-21T14:52:35.583Z,12.90
2022-11-21T14:55:34.397Z,12.40
2022-11-21T14:58:04.340Z,12.40
2022-11-21T15:03:24.320Z,12.30
2022-11-21T15:06:05.254Z,12.80
2022-11-21T15:09:14.805Z,12.90
2022-11-21T15:11:53.902Z,12.20
2022-11-21T15:14:50.123Z,12.20
2022-11-21T15:18:24.407Z,12.20
2022-11-21T15:20:26.714Z,12.90
2022-11-21T15:23:02.322Z,12.20
2022-11-21T15:25:48.454Z,11.70
2022-11-21T15:28:19.240Z,11.90
2022-11-21T15:30:46.876Z,11.90
2022-11-21T15:33:21.416Z,12.90
2022-11-21T15:35:58.807Z,10.90
2022-11-21T15:38:45.505Z,11.80
2022-11-21T15:41:13.595Z,11.60
2022-11-21T15:43:55.619Z,11.40
2022-11-21T15:46:23.776Z,11.70
2022-11-21T15:48:53.132Z,12.50
2022-11-21T15:54:23.340Z,12.20
2022-11-21T15:56:54.233Z,11.50
2022-11-21T15:57:11.099Z,11.60
2022-11-21T15:59:23.895Z,11.50
2022-11-21T16:01:50.609Z,12.20
2022-11-21T16:04:22.376Z,11.50
2022-11-21T16:06:51.894Z,11.50
2022-11-21T16:09:18.661Z,11.40
2022-11-21T16:11:45.343Z,11.30
2022-11-21T16:14:15.464Z,11.10
2022-11-21T16:16:44.022Z,11.20
2022-11-21T16:19:15.139Z,11.10
2022-11-21T16:21:42.908Z,11.00
2022-11-21T16:24:09.673Z,11.00
2022-11-21T16:26:36.694Z,10.90
2022-11-21T16:29:05.586Z,10.80
2022-11-21T16:31:33.359Z,10.80
2022-11-21T16:34:00.712Z,10.70
2022-11-21T16:36:30.565Z,10.70
2022-11-21T16:39:01.848Z,10.60
2022-11-21T16:41:30.307Z,10.60
2022-11-21T16:43:57.115Z,10.60
2022-11-21T16:46:25.127Z,10.50
2022-11-21T16:49:01.016Z,10.50
2022-11-21T16:51:29.313Z,10.50
2022-11-21T16:53:58.083Z,10.50
2022-11-21T16:56:26.977Z,10.50
2022-11-21T16:58:53.991Z,10.40
2022-11-21T17:01:24.553Z,10.40
2022-11-21T17:03:52.665Z,10.40
2022-11-21T17:06:23.796Z,10.40
2022-11-21T17:08:51.049Z,10.40
2022-11-21T17:11:29.052Z,10.40
2022-11-21T17:14:00.823Z,10.40
2022-11-21T17:16:27.737Z,10.40
2022-11-21T17:18:56.806Z,10.30
2022-11-21T17:21:23.783Z,10.30
2022-11-21T17:23:50.962Z,9.40
2022-11-21T17:26:29.206Z,10.30
2022-11-21T17:29:03.431Z,10.20
2022-11-21T17:31:31.170Z,10.20
2022-11-21T17:34:00.514Z,10.20
2022-11-21T17:36:30.041Z,10.10
2022-11-21T17:38:57.061Z,10.10
2022-11-21T17:41:25.328Z,10.10
2022-11-21T17:43:58.584Z,10.10
2022-11-21T17:46:26.208Z,10.10
2022-11-21T17:48:58.025Z,10.10
2022-11-21T17:51:33.393Z,10.10
2022-11-21T17:54:01.842Z,10.10
2022-11-21T17:56:32.391Z,10.00
2022-11-21T17:58:59.519Z,10.10
2022-11-21T18:01:26.920Z,10.10
2022-11-21T18:04:02.314Z,10.00
2022-11-21T18:06:38.902Z,10.10
2022-11-21T18:09:11.326Z,10.10
2022-11-21T18:11:40.465Z,10.10
2022-11-21T18:14:10.187Z,10.10
2022-11-21T18:16:39.215Z,10.10
2022-11-21T18:19:06.394Z,10.60
2022-11-21T18:21:36.197Z,10.10
2022-11-21T18:24:03.257Z,10.10
2022-11-21T18:26:38.698Z,10.10
2022-11-21T18:31:56.112Z,10.10
2022-11-21T18:34:22.821Z,10.10
2022-11-21T18:36:49.556Z,10.00
2022-11-21T18:39:16.261Z,10.00
2022-11-21T18:41:43.944Z,10.00
2022-11-21T18:44:15.819Z,9.80
2022-11-21T18:46:45.315Z,10.00
2022-11-21T18:49:12.061Z,10.00
2022-11-21T18:51:38.767Z,10.00
2022-11-21T18:54:08.565Z,10.00
2022-11-21T18:56:38.243Z,10.00
2022-11-21T18:59:06.437Z,10.00
2022-11-21T19:01:36.032Z,10.00
2022-11-21T19:04:03.589Z,10.00
2022-11-21T19:06:30.386Z,10.00
2022-11-21T19:08:58.593Z,10.00
2022-11-21T19:11:28.833Z,10.00
2022-11-21T19:13:57.464Z,10.00
2022-11-21T19:16:27.301Z,10.00
2022-11-21T19:21:42.940Z,10.00
2022-11-21T19:24:14.642Z,10.00
2022-11-21T19:26:42.388Z,10.00
2022-11-21T19:29:10.251Z,10.00
2022-11-21T19:31:44.243Z,10.00
2022-11-21T19:34:16.146Z,10.00
2022-11-21T19:36:44.564Z,10.00
2022-11-21T19:39:12.202Z,10.00
2022-11-21T19:41:39.715Z,10.10
2022-11-21T19:44:06.600Z,10.10
2022-11-21T19:46:38.689Z,10.00
2022-11-21T19:49:07.948Z,10.20
2022-11-21T19:51:41.721Z,10.10
2022-11-21T19:54:12.415Z,10.20
2022-11-21T19:56:39.627Z,10.30
2022-11-21T19:59:06.534Z,10.30
2022-11-21T20:01:35.334Z,10.40
2022-11-21T20:04:05.828Z,10.40
2022-11-21T20:06:36.229Z,10.40
2022-11-21T20:09:08.371Z,10.40
2022-11-21T20:11:36.535Z,10.40
2022-11-21T20:14:03.372Z,10.40
2022-11-21T20:16:40.160Z,10.40
2022-11-21T20:19:11.826Z,10.30
2022-11-21T20:21:39.379Z,10.30
2022-11-21T20:24:07.215Z,10.30
2022-11-21T20:26:36.228Z,10.30
2022-11-21T20:29:04.532Z,10.30
2022-11-21T20:31:34.985Z,10.20
2022-11-21T20:34:12.396Z,10.20
2022-11-21T20:36:40.413Z,10.30
2022-11-21T20:39:14.209Z,10.20
2022-11-21T20:41:41.967Z,10.30
2022-11-21T20:47:02.367Z,10.60
2022-11-21T20:49:31.094Z,10.20
2022-11-21T20:54:45.485Z,10.20
2022-11-21T20:57:15.227Z,10.30
2022-11-21T20:59:42.842Z,10.20
2022-11-21T21:02:14.356Z,10.30
2022-11-21T21:04:41.688Z,10.30
2022-11-21T21:07:08.679Z,10.30
2022-11-21T21:09:35.442Z,10.30
2022-11-21T21:12:02.180Z,10.30
2022-11-21T21:14:28.995Z,10.30
2022-11-21T21:16:55.751Z,10.30
2022-11-21T21:19:22.646Z,10.30
2022-11-21T21:21:49.398Z,10.40
2022-11-21T21:24:17.066Z,10.30
2022-11-21T21:26:47.327Z,10.40
2022-11-21T21:29:20.270Z,10.40
2022-11-21T21:31:51.541Z,10.40
2022-11-21T21:34:20.671Z,10.40
2022-11-21T21:36:47.983Z,10.40
2022-11-21T21:39:14.929Z,10.40
2022-11-21T21:41:45.717Z,10.40
2022-11-21T21:44:13.153Z,10.40
2022-11-21T21:46:39.983Z,10.40
2022-11-21T21:49:06.768Z,10.40
2022-11-21T21:51:33.487Z,10.40
2022-11-21T21:54:00.639Z,10.40
2022-11-21T21:56:29.195Z,10.30
2022-11-21T21:58:59.666Z,10.40
2022-11-21T22:01:30.176Z,10.30
2022-11-21T22:04:03.468Z,10.30
2022-11-21T22:06:34.159Z,10.60
2022-11-21T22:09:02.109Z,10.60
2022-11-21T22:11:32.216Z,10.30
2022-11-21T22:14:02.575Z,10.30
2022-11-21T22:16:30.353Z,10.30
2022-11-21T22:18:57.742Z,10.30
2022-11-21T22:21:33.878Z,10.30
2022-11-21T22:24:27.594Z,10.30
2022-11-21T22:26:55.097Z,10.30
2022-11-21T22:29:22.037Z,10.30
2022-11-21T22:31:48.718Z,10.30
2022-11-21T22:34:15.622Z,10.30
2022-11-21T22:36:43.242Z,10.30
2022-11-21T22:39:09.993Z,10.20
2022-11-21T22:41:36.800Z,10.20
2022-11-21T22:44:03.686Z,10.20
2022-11-21T22:46:31.305Z,10.20
2022-11-21T22:48:58.715Z,10.30
2022-11-21T22:51:31.432Z,10.20
2022-11-21T22:53:58.227Z,10.20
2022-11-21T22:56:26.490Z,10.20
2022-11-21T22:58:53.924Z,10.20
2022-11-21T23:01:25.924Z,10.10
2022-11-21T23:03:55.345Z,10.10
2022-11-21T23:06:25.159Z,10.10
2022-11-21T23:08:54.171Z,10.30
2022-11-21T23:11:29.258Z,10.10
2022-11-21T23:13:57.276Z,10.10
2022-11-21T23:16:25.483Z,10.10
2022-11-21T23:18:53.605Z,10.00
2022-11-21T23:21:22.368Z,10.00
2022-11-21T23:23:49.122Z,10.00
2022-11-21T23:26:15.856Z,10.00
2022-11-21T23:28:42.679Z,9.90
2022-11-21T23:31:10.724Z,9.90
2022-11-21T23:33:37.540Z,9.90
2022-11-21T23:36:04.860Z,9.90
2022-11-21T23:38:31.996Z,9.90
2022-11-21T23:40:58.780Z,9.90
2022-11-21T23:43:25.549Z,9.90
2022-11-21T23:45:53.587Z,9.90
2022-11-21T23:48:21.739Z,9.80
2022-11-21T23:50:50.716Z,9.90
2022-11-21T23:53:18.585Z,9.90
2022-11-21T23:55:45.754Z,9.90
2022-11-21T23:58:13.132Z,9.90
